sensor_id;sensor_type;location;lat;lon;timestamp;P1;durP1;ratioP1;P2;durP2;ratioP2
20956;SDS011;10637;47.970;7.830;2024-02-21T00:02:14;20.27;;;5.17;;
20956;SDS011;10637;47.970;7.830;2024-02-21T00:07:16;15.33;;;4.30;;
20956;SDS011;10637;47.970;7.830;2024-02-21T00:12:18;15.53;;;4.27;;
20956;SDS011;10637;47.970;7.830;2024-02-21T00:17:20;20.73;;;4.60;;
20956;SDS011;10637;47.970;7.830;2024-02-21T00:22:22;15.87;;;4.63;;
20956;SDS011;10637;47.970;7.830;2024-02-21T00:27:23;16.00;;;4.10;;
20956;SDS011;10637;47.970;7.830;2024-02-21T00:32:25;16.00;;;4.23;;
20956;SDS011;10637;47.970;7.830;2024-02-21T00:37:27;18.07;;;4.70;;
20956;SDS011;10637;47.970;7.830;2024-02-21T00:42:29;17.30;;;4.67;;
20956;SDS011;10637;47.970;7.830;2024-02-21T00:47:31;12.20;;;3.50;;
20956;SDS011;10637;47.970;7.830;2024-02-21T00:52:32;9.70;;;2.67;;
20956;SDS011;10637;47.970;7.830;2024-02-21T00:57:34;13.07;;;2.87;;
20956;SDS011;10637;47.970;7.830;2024-02-21T01:02:36;13.40;;;3.40;;
20956;SDS011;10637;47.970;7.830;2024-02-21T01:07:38;11.73;;;3.27;;
20956;SDS011;10637;47.970;7.830;2024-02-21T01:12:40;16.00;;;4.40;;
20956;SDS011;10637;47.970;7.830;2024-02-21T01:17:41;12.97;;;3.33;;
20956;SDS011;10637;47.970;7.830;2024-02-21T01:22:43;16.30;;;3.47;;
20956;SDS011;10637;47.970;7.830;2024-02-21T01:27:45;15.27;;;2.37;;
20956;SDS011;10637;47.970;7.830;2024-02-21T01:32:47;11.03;;;2.77;;
20956;SDS011;10637;47.970;7.830;2024-02-21T01:37:49;11.83;;;3.10;;
20956;SDS011;10637;47.970;7.830;2024-02-21T01:42:50;14.37;;;3.20;;
20956;SDS011;10637;47.970;7.830;2024-02-21T01:47:56;17.30;;;3.80;;
20956;SDS011;10637;47.970;7.830;2024-02-21T01:52:57;12.57;;;2.70;;
20956;SDS011;10637;47.970;7.830;2024-02-21T01:58:00;15.70;;;2.93;;
20956;SDS011;10637;47.970;7.830;2024-02-21T02:03:02;16.47;;;3.00;;
20956;SDS011;10637;47.970;7.830;2024-02-21T02:08:05;12.53;;;3.00;;
20956;SDS011;10637;47.970;7.830;2024-02-21T02:13:07;14.13;;;3.20;;
20956;SDS011;10637;47.970;7.830;2024-02-21T02:18:10;13.00;;;2.60;;
20956;SDS011;10637;47.970;7.830;2024-02-21T02:23:21;11.67;;;2.73;;
20956;SDS011;10637;47.970;7.830;2024-02-21T02:28:26;12.17;;;2.90;;
20956;SDS011;10637;47.970;7.830;2024-02-21T02:33:28;11.27;;;2.90;;
20956;SDS011;10637;47.970;7.830;2024-02-21T02:38:30;12.13;;;2.80;;
20956;SDS011;10637;47.970;7.830;2024-02-21T02:43:32;13.40;;;2.93;;
20956;SDS011;10637;47.970;7.830;2024-02-21T02:48:34;12.83;;;3.20;;
20956;SDS011;10637;47.970;7.830;2024-02-21T02:53:37;10.60;;;2.73;;
20956;SDS011;10637;47.970;7.830;2024-02-21T02:58:39;18.00;;;3.37;;
20956;SDS011;10637;47.970;7.830;2024-02-21T03:03:41;14.80;;;2.93;;
20956;SDS011;10637;47.970;7.830;2024-02-21T03:08:42;8.60;;;2.47;;
20956;SDS011;10637;47.970;7.830;2024-02-21T03:13:44;14.27;;;2.50;;
20956;SDS011;10637;47.970;7.830;2024-02-21T03:18:46;10.20;;;2.33;;
20956;SDS011;10637;47.970;7.830;2024-02-21T03:23:48;14.27;;;2.67;;
20956;SDS011;10637;47.970;7.830;2024-02-21T03:28:50;10.53;;;2.10;;
20956;SDS011;10637;47.970;7.830;2024-02-21T03:33:51;11.80;;;3.00;;
20956;SDS011;10637;47.970;7.830;2024-02-21T03:38:56;7.67;;;2.10;;
20956;SDS011;10637;47.970;7.830;2024-02-21T03:43:58;10.17;;;2.40;;
20956;SDS011;10637;47.970;7.830;2024-02-21T03:49:00;10.23;;;2.40;;
20956;SDS011;10637;47.970;7.830;2024-02-21T03:54:02;12.13;;;2.63;;
20956;SDS011;10637;47.970;7.830;2024-02-21T03:59:04;10.97;;;2.47;;
20956;SDS011;10637;47.970;7.830;2024-02-21T04:04:05;12.07;;;2.90;;
20956;SDS011;10637;47.970;7.830;2024-02-21T04:09:08;11.57;;;2.30;;
20956;SDS011;10637;47.970;7.830;2024-02-21T04:14:09;12.63;;;2.57;;
20956;SDS011;10637;47.970;7.830;2024-02-21T04:19:13;7.87;;;2.23;;
20956;SDS011;10637;47.970;7.830;2024-02-21T04:24:15;8.00;;;1.90;;
20956;SDS011;10637;47.970;7.830;2024-02-21T04:29:16;9.07;;;2.40;;
20956;SDS011;10637;47.970;7.830;2024-02-21T04:34:18;10.17;;;2.30;;
20956;SDS011;10637;47.970;7.830;2024-02-21T04:39:20;10.73;;;2.87;;
20956;SDS011;10637;47.970;7.830;2024-02-21T04:49:58;11.23;;;2.43;;
20956;SDS011;10637;47.970;7.830;2024-02-21T04:55:00;12.63;;;2.53;;
20956;SDS011;10637;47.970;7.830;2024-02-21T05:00:02;15.30;;;2.90;;
20956;SDS011;10637;47.970;7.830;2024-02-21T05:05:05;9.70;;;2.10;;
20956;SDS011;10637;47.970;7.830;2024-02-21T05:10:07;10.83;;;2.30;;
20956;SDS011;10637;47.970;7.830;2024-02-21T05:15:09;13.57;;;2.27;;
20956;SDS011;10637;47.970;7.830;2024-02-21T05:20:11;10.37;;;2.40;;
20956;SDS011;10637;47.970;7.830;2024-02-21T05:25:13;13.27;;;2.70;;
20956;SDS011;10637;47.970;7.830;2024-02-21T05:30:15;8.17;;;1.93;;
20956;SDS011;10637;47.970;7.830;2024-02-21T05:35:17;10.83;;;2.17;;
20956;SDS011;10637;47.970;7.830;2024-02-21T05:40:19;13.80;;;2.33;;
20956;SDS011;10637;47.970;7.830;2024-02-21T05:45:21;13.40;;;2.80;;
20956;SDS011;10637;47.970;7.830;2024-02-21T05:50:23;13.03;;;2.17;;
20956;SDS011;10637;47.970;7.830;2024-02-21T05:55:25;13.87;;;3.60;;
20956;SDS011;10637;47.970;7.830;2024-02-21T06:00:27;12.40;;;2.60;;
20956;SDS011;10637;47.970;7.830;2024-02-21T06:05:29;10.63;;;2.83;;
20956;SDS011;10637;47.970;7.830;2024-02-21T06:10:32;9.77;;;2.20;;
20956;SDS011;10637;47.970;7.830;2024-02-21T06:15:34;11.90;;;2.60;;
20956;SDS011;10637;47.970;7.830;2024-02-21T06:20:35;11.37;;;2.67;;
20956;SDS011;10637;47.970;7.830;2024-02-21T06:25:40;14.73;;;3.63;;
20956;SDS011;10637;47.970;7.830;2024-02-21T06:30:42;14.17;;;4.00;;
20956;SDS011;10637;47.970;7.830;2024-02-21T06:35:43;15.27;;;4.43;;
20956;SDS011;10637;47.970;7.830;2024-02-21T06:40:48;16.97;;;5.20;;
20956;SDS011;10637;47.970;7.830;2024-02-21T06:45:52;20.27;;;6.87;;
20956;SDS011;10637;47.970;7.830;2024-02-21T06:50:55;20.47;;;7.20;;
20956;SDS011;10637;47.970;7.830;2024-02-21T06:55:57;16.07;;;5.90;;
20956;SDS011;10637;47.970;7.830;2024-02-21T07:00:59;15.93;;;4.87;;
20956;SDS011;10637;47.970;7.830;2024-02-21T07:06:01;17.23;;;5.67;;
20956;SDS011;10637;47.970;7.830;2024-02-21T07:11:04;14.87;;;3.80;;
20956;SDS011;10637;47.970;7.830;2024-02-21T07:16:06;11.03;;;3.00;;
20956;SDS011;10637;47.970;7.830;2024-02-21T07:21:09;14.40;;;3.30;;
20956;SDS011;10637;47.970;7.830;2024-02-21T07:26:11;13.17;;;3.23;;
20956;SDS011;10637;47.970;7.830;2024-02-21T07:31:13;10.07;;;2.97;;
20956;SDS011;10637;47.970;7.830;2024-02-21T07:36:15;12.97;;;3.33;;
20956;SDS011;10637;47.970;7.830;2024-02-21T07:41:25;11.83;;;3.97;;
20956;SDS011;10637;47.970;7.830;2024-02-21T07:46:27;11.73;;;4.10;;
20956;SDS011;10637;47.970;7.830;2024-02-21T07:51:29;15.57;;;5.07;;
20956;SDS011;10637;47.970;7.830;2024-02-21T07:56:31;19.47;;;4.93;;
20956;SDS011;10637;47.970;7.830;2024-02-21T08:01:33;16.07;;;4.60;;
20956;SDS011;10637;47.970;7.830;2024-02-21T08:06:36;18.73;;;4.80;;
20956;SDS011;10637;47.970;7.830;2024-02-21T08:11:38;18.93;;;4.60;;
20956;SDS011;10637;47.970;7.830;2024-02-21T08:16:40;15.33;;;5.30;;
20956;SDS011;10637;47.970;7.830;2024-02-21T08:21:42;15.77;;;5.50;;
20956;SDS011;10637;47.970;7.830;2024-02-21T08:26:44;17.73;;;4.80;;
20956;SDS011;10637;47.970;7.830;2024-02-21T08:31:46;12.30;;;4.13;;
20956;SDS011;10637;47.970;7.830;2024-02-21T08:36:48;14.50;;;4.20;;
20956;SDS011;10637;47.970;7.830;2024-02-21T08:41:49;13.00;;;3.90;;
20956;SDS011;10637;47.970;7.830;2024-02-21T08:46:58;11.30;;;3.47;;
20956;SDS011;10637;47.970;7.830;2024-02-21T08:52:00;12.37;;;3.13;;
20956;SDS011;10637;47.970;7.830;2024-02-21T08:57:02;10.97;;;3.33;;
20956;SDS011;10637;47.970;7.830;2024-02-21T09:02:04;13.53;;;3.40;;
20956;SDS011;10637;47.970;7.830;2024-02-21T09:07:08;11.93;;;3.60;;
20956;SDS011;10637;47.970;7.830;2024-02-21T09:12:10;17.37;;;4.00;;
20956;SDS011;10637;47.970;7.830;2024-02-21T09:17:12;18.20;;;4.57;;
20956;SDS011;10637;47.970;7.830;2024-02-21T09:22:13;11.27;;;3.07;;
20956;SDS011;10637;47.970;7.830;2024-02-21T09:27:15;10.43;;;3.20;;
20956;SDS011;10637;47.970;7.830;2024-02-21T09:32:20;11.30;;;3.53;;
20956;SDS011;10637;47.970;7.830;2024-02-21T09:37:22;14.83;;;4.07;;
20956;SDS011;10637;47.970;7.830;2024-02-21T09:42:26;12.90;;;3.53;;
20956;SDS011;10637;47.970;7.830;2024-02-21T09:47:43;13.87;;;3.13;;
20956;SDS011;10637;47.970;7.830;2024-02-21T09:52:56;13.50;;;3.40;;
20956;SDS011;10637;47.970;7.830;2024-02-21T09:58:01;12.97;;;3.23;;
20956;SDS011;10637;47.970;7.830;2024-02-21T10:03:04;9.43;;;2.93;;
20956;SDS011;10637;47.970;7.830;2024-02-21T10:08:13;10.30;;;3.13;;
20956;SDS011;10637;47.970;7.830;2024-02-21T10:13:24;11.97;;;2.90;;
20956;SDS011;10637;47.970;7.830;2024-02-21T10:18:28;9.43;;;3.20;;
20956;SDS011;10637;47.970;7.830;2024-02-21T10:23:42;16.57;;;3.17;;
20956;SDS011;10637;47.970;7.830;2024-02-21T10:28:53;11.47;;;2.50;;
20956;SDS011;10637;47.970;7.830;2024-02-21T10:33:59;9.37;;;2.30;;
20956;SDS011;10637;47.970;7.830;2024-02-21T10:39:06;10.23;;;2.47;;
20956;SDS011;10637;47.970;7.830;2024-02-21T10:44:08;9.30;;;2.10;;
20956;SDS011;10637;47.970;7.830;2024-02-21T10:49:16;10.13;;;2.20;;
20956;SDS011;10637;47.970;7.830;2024-02-21T10:54:39;15.73;;;3.37;;
20956;SDS011;10637;47.970;7.830;2024-02-21T10:59:51;13.20;;;2.97;;
20956;SDS011;10637;47.970;7.830;2024-02-21T11:04:55;9.47;;;2.30;;
20956;SDS011;10637;47.970;7.830;2024-02-21T11:09:59;10.87;;;2.50;;
20956;SDS011;10637;47.970;7.830;2024-02-21T11:15:05;11.83;;;2.70;;
20956;SDS011;10637;47.970;7.830;2024-02-21T11:20:10;11.20;;;2.73;;
20956;SDS011;10637;47.970;7.830;2024-02-21T11:25:20;15.90;;;2.60;;
20956;SDS011;10637;47.970;7.830;2024-02-21T11:30:26;11.00;;;2.60;;
20956;SDS011;10637;47.970;7.830;2024-02-21T11:35:35;13.53;;;3.40;;
20956;SDS011;10637;47.970;7.830;2024-02-21T11:40:41;11.00;;;2.43;;
20956;SDS011;10637;47.970;7.830;2024-02-21T11:45:45;10.17;;;2.70;;
20956;SDS011;10637;47.970;7.830;2024-02-21T11:50:54;10.13;;;2.33;;
20956;SDS011;10637;47.970;7.830;2024-02-21T11:55:56;9.50;;;2.40;;
20956;SDS011;10637;47.970;7.830;2024-02-21T12:00:58;10.33;;;2.20;;
20956;SDS011;10637;47.970;7.830;2024-02-21T12:06:00;11.53;;;1.37;;
20956;SDS011;10637;47.970;7.830;2024-02-21T12:11:15;5.10;;;1.10;;
20956;SDS011;10637;47.970;7.830;2024-02-21T12:16:21;4.23;;;1.00;;
20956;SDS011;10637;47.970;7.830;2024-02-21T12:21:41;4.67;;;1.10;;
20956;SDS011;10637;47.970;7.830;2024-02-21T12:26:42;5.57;;;1.07;;
20956;SDS011;10637;47.970;7.830;2024-02-21T12:31:44;6.40;;;1.20;;
20956;SDS011;10637;47.970;7.830;2024-02-21T12:36:48;7.67;;;1.50;;
20956;SDS011;10637;47.970;7.830;2024-02-21T12:41:50;4.90;;;1.00;;
20956;SDS011;10637;47.970;7.830;2024-02-21T12:46:52;6.00;;;1.30;;
20956;SDS011;10637;47.970;7.830;2024-02-21T12:51:56;5.70;;;1.10;;
20956;SDS011;10637;47.970;7.830;2024-02-21T12:56:58;5.03;;;1.17;;
20956;SDS011;10637;47.970;7.830;2024-02-21T13:02:04;8.93;;;1.20;;
20956;SDS011;10637;47.970;7.830;2024-02-21T13:07:06;5.27;;;1.13;;
20956;SDS011;10637;47.970;7.830;2024-02-21T13:12:08;5.00;;;1.10;;
20956;SDS011;10637;47.970;7.830;2024-02-21T13:17:10;5.57;;;1.23;;
20956;SDS011;10637;47.970;7.830;2024-02-21T13:22:12;5.13;;;1.10;;
20956;SDS011;10637;47.970;7.830;2024-02-21T13:27:14;5.60;;;1.10;;
20956;SDS011;10637;47.970;7.830;2024-02-21T13:32:16;7.63;;;1.43;;
20956;SDS011;10637;47.970;7.830;2024-02-21T13:37:18;6.50;;;1.40;;
20956;SDS011;10637;47.970;7.830;2024-02-21T13:42:20;7.23;;;1.40;;
20956;SDS011;10637;47.970;7.830;2024-02-21T13:47:21;6.23;;;1.70;;
20956;SDS011;10637;47.970;7.830;2024-02-21T13:52:23;5.93;;;1.50;;
20956;SDS011;10637;47.970;7.830;2024-02-21T13:57:27;8.57;;;1.77;;
20956;SDS011;10637;47.970;7.830;2024-02-21T14:02:29;9.43;;;1.87;;
20956;SDS011;10637;47.970;7.830;2024-02-21T14:07:31;8.07;;;2.00;;
20956;SDS011;10637;47.970;7.830;2024-02-21T14:12:34;7.93;;;2.20;;
20956;SDS011;10637;47.970;7.830;2024-02-21T14:17:36;9.83;;;2.30;;
20956;SDS011;10637;47.970;7.830;2024-02-21T14:22:38;9.27;;;2.20;;
20956;SDS011;10637;47.970;7.830;2024-02-21T14:27:40;9.53;;;2.57;;
20956;SDS011;10637;47.970;7.830;2024-02-21T14:32:43;8.73;;;1.97;;
20956;SDS011;10637;47.970;7.830;2024-02-21T14:37:47;10.27;;;2.90;;
20956;SDS011;10637;47.970;7.830;2024-02-21T14:42:50;9.70;;;2.80;;
20956;SDS011;10637;47.970;7.830;2024-02-21T14:47:53;11.60;;;2.17;;
20956;SDS011;10637;47.970;7.830;2024-02-21T14:52:56;9.03;;;2.33;;
20956;SDS011;10637;47.970;7.830;2024-02-21T14:57:58;9.90;;;2.40;;
20956;SDS011;10637;47.970;7.830;2024-02-21T15:03:00;10.70;;;2.80;;
20956;SDS011;10637;47.970;7.830;2024-02-21T15:08:03;13.60;;;3.20;;
20956;SDS011;10637;47.970;7.830;2024-02-21T15:13:05;10.20;;;2.50;;
20956;SDS011;10637;47.970;7.830;2024-02-21T15:18:07;9.87;;;2.70;;
20956;SDS011;10637;47.970;7.830;2024-02-21T15:23:10;10.80;;;2.93;;
20956;SDS011;10637;47.970;7.830;2024-02-21T15:28:12;8.00;;;2.57;;
20956;SDS011;10637;47.970;7.830;2024-02-21T15:33:14;8.20;;;2.17;;
20956;SDS011;10637;47.970;7.830;2024-02-21T15:38:16;11.00;;;2.83;;
20956;SDS011;10637;47.970;7.830;2024-02-21T15:43:17;8.27;;;2.00;;
20956;SDS011;10637;47.970;7.830;2024-02-21T15:48:19;6.90;;;1.50;;
20956;SDS011;10637;47.970;7.830;2024-02-21T15:53:26;6.30;;;2.27;;
20956;SDS011;10637;47.970;7.830;2024-02-21T15:58:28;7.37;;;2.03;;
20956;SDS011;10637;47.970;7.830;2024-02-21T16:03:30;8.27;;;1.90;;
20956;SDS011;10637;47.970;7.830;2024-02-21T16:08:32;10.03;;;2.70;;
20956;SDS011;10637;47.970;7.830;2024-02-21T16:13:37;10.40;;;3.70;;
20956;SDS011;10637;47.970;7.830;2024-02-21T16:18:39;13.97;;;3.03;;
20956;SDS011;10637;47.970;7.830;2024-02-21T16:23:41;12.33;;;3.57;;
20956;SDS011;10637;47.970;7.830;2024-02-21T16:28:43;9.23;;;3.10;;
20956;SDS011;10637;47.970;7.830;2024-02-21T16:33:44;12.60;;;3.33;;
20956;SDS011;10637;47.970;7.830;2024-02-21T16:38:46;13.90;;;3.30;;
20956;SDS011;10637;47.970;7.830;2024-02-21T16:43:48;13.13;;;4.73;;
20956;SDS011;10637;47.970;7.830;2024-02-21T16:48:50;19.83;;;6.83;;
20956;SDS011;10637;47.970;7.830;2024-02-21T16:53:53;13.30;;;4.40;;
20956;SDS011;10637;47.970;7.830;2024-02-21T16:58:54;9.53;;;3.77;;
20956;SDS011;10637;47.970;7.830;2024-02-21T17:03:56;12.13;;;4.10;;
20956;SDS011;10637;47.970;7.830;2024-02-21T17:08:58;14.80;;;6.10;;
20956;SDS011;10637;47.970;7.830;2024-02-21T17:14:02;10.60;;;4.20;;
20956;SDS011;10637;47.970;7.830;2024-02-21T17:19:05;15.87;;;4.80;;
20956;SDS011;10637;47.970;7.830;2024-02-21T17:24:07;14.17;;;4.27;;
20956;SDS011;10637;47.970;7.830;2024-02-21T17:29:09;11.97;;;4.23;;
20956;SDS011;10637;47.970;7.830;2024-02-21T17:34:10;20.13;;;7.40;;
20956;SDS011;10637;47.970;7.830;2024-02-21T17:39:13;14.37;;;4.90;;
20956;SDS011;10637;47.970;7.830;2024-02-21T17:44:15;14.13;;;5.57;;
20956;SDS011;10637;47.970;7.830;2024-02-21T17:49:16;12.23;;;5.57;;
20956;SDS011;10637;47.970;7.830;2024-02-21T17:54:18;14.50;;;6.07;;
20956;SDS011;10637;47.970;7.830;2024-02-21T17:59:20;14.73;;;6.20;;
20956;SDS011;10637;47.970;7.830;2024-02-21T18:04:22;12.70;;;4.70;;
20956;SDS011;10637;47.970;7.830;2024-02-21T18:09:24;10.77;;;3.17;;
20956;SDS011;10637;47.970;7.830;2024-02-21T18:14:26;11.27;;;3.87;;
20956;SDS011;10637;47.970;7.830;2024-02-21T18:19:28;10.53;;;3.90;;
20956;SDS011;10637;47.970;7.830;2024-02-21T18:24:34;12.23;;;4.60;;
20956;SDS011;10637;47.970;7.830;2024-02-21T18:29:36;8.80;;;2.57;;
20956;SDS011;10637;47.970;7.830;2024-02-21T18:34:41;10.93;;;2.90;;
20956;SDS011;10637;47.970;7.830;2024-02-21T18:39:44;10.73;;;3.17;;
20956;SDS011;10637;47.970;7.830;2024-02-21T18:44:46;10.77;;;3.53;;
20956;SDS011;10637;47.970;7.830;2024-02-21T18:49:48;11.43;;;3.90;;
20956;SDS011;10637;47.970;7.830;2024-02-21T18:54:51;12.80;;;3.87;;
20956;SDS011;10637;47.970;7.830;2024-02-21T18:59:52;8.37;;;3.00;;
20956;SDS011;10637;47.970;7.830;2024-02-21T19:04:55;17.23;;;10.37;;
20956;SDS011;10637;47.970;7.830;2024-02-21T19:09:57;21.33;;;10.67;;
20956;SDS011;10637;47.970;7.830;2024-02-21T19:14:59;14.90;;;7.03;;
20956;SDS011;10637;47.970;7.830;2024-02-21T19:20:01;9.57;;;3.30;;
20956;SDS011;10637;47.970;7.830;2024-02-21T19:25:03;10.00;;;3.63;;
20956;SDS011;10637;47.970;7.830;2024-02-21T19:30:09;10.97;;;4.37;;
20956;SDS011;10637;47.970;7.830;2024-02-21T19:35:14;9.33;;;3.07;;
20956;SDS011;10637;47.970;7.830;2024-02-21T19:40:16;10.70;;;4.20;;
20956;SDS011;10637;47.970;7.830;2024-02-21T19:45:18;10.17;;;3.90;;
20956;SDS011;10637;47.970;7.830;2024-02-21T19:50:20;9.47;;;3.20;;
20956;SDS011;10637;47.970;7.830;2024-02-21T19:55:23;8.37;;;3.10;;
20956;SDS011;10637;47.970;7.830;2024-02-21T20:00:25;8.60;;;2.53;;
20956;SDS011;10637;47.970;7.830;2024-02-21T20:05:27;11.90;;;2.60;;
20956;SDS011;10637;47.970;7.830;2024-02-21T20:10:29;9.33;;;2.70;;
20956;SDS011;10637;47.970;7.830;2024-02-21T20:15:31;7.23;;;2.07;;
20956;SDS011;10637;47.970;7.830;2024-02-21T20:20:33;8.60;;;2.37;;
20956;SDS011;10637;47.970;7.830;2024-02-21T20:25:36;6.73;;;1.93;;
20956;SDS011;10637;47.970;7.830;2024-02-21T20:30:37;7.37;;;2.70;;
20956;SDS011;10637;47.970;7.830;2024-02-21T20:35:39;8.40;;;2.30;;
20956;SDS011;10637;47.970;7.830;2024-02-21T20:40:41;10.43;;;2.20;;
20956;SDS011;10637;47.970;7.830;2024-02-21T20:45:43;6.73;;;1.63;;
20956;SDS011;10637;47.970;7.830;2024-02-21T20:50:45;5.67;;;1.70;;
20956;SDS011;10637;47.970;7.830;2024-02-21T20:55:47;6.27;;;1.60;;
20956;SDS011;10637;47.970;7.830;2024-02-21T21:00:49;6.03;;;1.70;;
20956;SDS011;10637;47.970;7.830;2024-02-21T21:05:50;5.80;;;1.60;;
20956;SDS011;10637;47.970;7.830;2024-02-21T21:10:52;8.17;;;2.20;;
20956;SDS011;10637;47.970;7.830;2024-02-21T21:15:54;8.17;;;3.00;;
20956;SDS011;10637;47.970;7.830;2024-02-21T21:20:56;8.93;;;2.23;;
20956;SDS011;10637;47.970;7.830;2024-02-21T21:25:59;9.60;;;2.67;;
20956;SDS011;10637;47.970;7.830;2024-02-21T21:31:01;9.00;;;2.83;;
20956;SDS011;10637;47.970;7.830;2024-02-21T21:36:02;8.47;;;2.60;;
20956;SDS011;10637;47.970;7.830;2024-02-21T21:41:06;11.03;;;2.67;;
20956;SDS011;10637;47.970;7.830;2024-02-21T21:46:11;8.07;;;2.67;;
20956;SDS011;10637;47.970;7.830;2024-02-21T21:51:16;8.63;;;3.00;;
20956;SDS011;10637;47.970;7.830;2024-02-21T21:56:18;12.53;;;4.00;;
20956;SDS011;10637;47.970;7.830;2024-02-21T22:01:20;12.57;;;3.37;;
20956;SDS011;10637;47.970;7.830;2024-02-21T22:06:27;10.70;;;3.57;;
20956;SDS011;10637;47.970;7.830;2024-02-21T22:11:29;9.77;;;3.33;;
20956;SDS011;10637;47.970;7.830;2024-02-21T22:16:30;8.93;;;3.20;;
20956;SDS011;10637;47.970;7.830;2024-02-21T22:21:32;9.53;;;3.67;;
20956;SDS011;10637;47.970;7.830;2024-02-21T22:26:34;12.73;;;3.43;;
20956;SDS011;10637;47.970;7.830;2024-02-21T22:31:37;9.07;;;3.35;;
20956;SDS011;10637;47.970;7.830;2024-02-21T22:36:41;10.70;;;3.27;;
20956;SDS011;10637;47.970;7.830;2024-02-21T22:41:42;9.53;;;3.23;;
20956;SDS011;10637;47.970;7.830;2024-02-21T22:46:46;9.27;;;3.20;;
20956;SDS011;10637;47.970;7.830;2024-02-21T22:51:48;7.57;;;2.73;;
20956;SDS011;10637;47.970;7.830;2024-02-21T22:56:50;9.90;;;3.10;;
20956;SDS011;10637;47.970;7.830;2024-02-21T23:01:51;8.70;;;2.83;;
20956;SDS011;10637;47.970;7.830;2024-02-21T23:06:53;10.60;;;3.30;;
20956;SDS011;10637;47.970;7.830;2024-02-21T23:11:55;8.33;;;2.83;;
20956;SDS011;10637;47.970;7.830;2024-02-21T23:16:57;9.03;;;2.77;;
20956;SDS011;10637;47.970;7.830;2024-02-21T23:21:59;11.20;;;2.57;;
20956;SDS011;10637;47.970;7.830;2024-02-21T23:27:01;8.30;;;3.13;;
20956;SDS011;10637;47.970;7.830;2024-02-21T23:32:03;11.93;;;3.67;;
20956;SDS011;10637;47.970;7.830;2024-02-21T23:37:05;11.70;;;3.50;;
20956;SDS011;10637;47.970;7.830;2024-02-21T23:42:08;10.23;;;3.43;;
20956;SDS011;10637;47.970;7.830;2024-02-21T23:47:09;11.17;;;4.07;;
20956;SDS011;10637;47.970;7.830;2024-02-21T23:52:11;9.50;;;3.73;;
20956;SDS011;10637;47.970;7.830;2024-02-21T23:57:15;8.57;;;3.10;;
